Gogama, Canada
Current Conditions -  °F | °C
As of 6:00 PM on Thursday 18 Dec 2014 (Local Time) from CYTS Reporting Station
Ice Pellets Ice Pellets  
Wind Chill: -20°   Ceiling: Unl
Heat Index: -15°   Visibility: 15mi
Dew Point: -16°   Wind: 5mph
Humidity: 92%   Direction: 300°WNW
Pressure: 30.17"   Gusts: NA
Location:  47.67°N, 81.72°W
Report Text: CYTS 182300Z 30004KT 15SM IC FEW210 M15/M16 A3017 RMK CI1 SLP249
Loading
Personal Weather Stations






























Interactive Weather Map New forecast layout! Learn more

10-Day Weather Forecast

Advertisements
Track Severe Weather on mobile